sensor_id;sensor_type;location;lat;lon;timestamp;P1;durP1;ratioP1;P2;durP2;ratioP2
19167;SDS011;9716;53.114;18.040;2023-08-07T00:00:46;0.80;;;0.80;;
19167;SDS011;9716;53.114;18.040;2023-08-07T00:03:35;0.63;;;0.63;;
19167;SDS011;9716;53.114;18.040;2023-08-07T00:06:04;1.30;;;0.63;;
19167;SDS011;9716;53.114;18.040;2023-08-07T00:08:32;0.98;;;0.88;;
19167;SDS011;9716;53.114;18.040;2023-08-07T00:11:04;0.60;;;0.60;;
19167;SDS011;9716;53.114;18.040;2023-08-07T00:13:33;0.85;;;0.70;;
19167;SDS011;9716;53.114;18.040;2023-08-07T00:16:02;0.82;;;0.82;;
19167;SDS011;9716;53.114;18.040;2023-08-07T00:18:31;7.03;;;0.95;;
19167;SDS011;9716;53.114;18.040;2023-08-07T00:21:02;1.17;;;0.90;;
19167;SDS011;9716;53.114;18.040;2023-08-07T00:23:30;0.75;;;0.75;;
19167;SDS011;9716;53.114;18.040;2023-08-07T00:25:59;1.20;;;0.90;;
19167;SDS011;9716;53.114;18.040;2023-08-07T00:28:28;0.93;;;0.60;;
19167;SDS011;9716;53.114;18.040;2023-08-07T00:30:57;1.02;;;0.70;;
19167;SDS011;9716;53.114;18.040;2023-08-07T00:33:25;0.82;;;0.82;;
19167;SDS011;9716;53.114;18.040;2023-08-07T00:35:54;5.53;;;0.80;;
19167;SDS011;9716;53.114;18.040;2023-08-07T00:38:25;0.82;;;0.70;;
19167;SDS011;9716;53.114;18.040;2023-08-07T00:40:54;1.23;;;0.90;;
19167;SDS011;9716;53.114;18.040;2023-08-07T00:43:22;6.47;;;0.98;;
19167;SDS011;9716;53.114;18.040;2023-08-07T00:45:50;1.88;;;0.93;;
19167;SDS011;9716;53.114;18.040;2023-08-07T00:48:19;1.20;;;0.73;;
19167;SDS011;9716;53.114;18.040;2023-08-07T00:50:48;1.33;;;0.75;;
19167;SDS011;9716;53.114;18.040;2023-08-07T00:53:16;2.38;;;0.90;;
19167;SDS011;9716;53.114;18.040;2023-08-07T00:55:47;0.90;;;0.90;;
19167;SDS011;9716;53.114;18.040;2023-08-07T00:58:15;1.45;;;0.88;;
19167;SDS011;9716;53.114;18.040;2023-08-07T01:00:45;7.35;;;0.77;;
19167;SDS011;9716;53.114;18.040;2023-08-07T01:03:14;1.10;;;1.00;;
19167;SDS011;9716;53.114;18.040;2023-08-07T01:05:43;1.08;;;0.90;;
19167;SDS011;9716;53.114;18.040;2023-08-07T01:08:11;1.02;;;0.77;;
19167;SDS011;9716;53.114;18.040;2023-08-07T01:10:44;1.65;;;0.93;;
19167;SDS011;9716;53.114;18.040;2023-08-07T01:13:22;1.33;;;0.90;;
19167;SDS011;9716;53.114;18.040;2023-08-07T01:15:53;1.48;;;0.93;;
19167;SDS011;9716;53.114;18.040;2023-08-07T01:18:26;0.90;;;0.70;;
19167;SDS011;9716;53.114;18.040;2023-08-07T01:20:56;0.70;;;0.70;;
19167;SDS011;9716;53.114;18.040;2023-08-07T01:23:26;2.58;;;0.93;;
19167;SDS011;9716;53.114;18.040;2023-08-07T01:25:55;0.77;;;0.70;;
19167;SDS011;9716;53.114;18.040;2023-08-07T01:28:25;2.75;;;0.95;;
19167;SDS011;9716;53.114;18.040;2023-08-07T01:30:58;0.52;;;0.52;;
19167;SDS011;9716;53.114;18.040;2023-08-07T01:33:31;0.77;;;0.65;;
19167;SDS011;9716;53.114;18.040;2023-08-07T01:36:04;0.80;;;0.80;;
19167;SDS011;9716;53.114;18.040;2023-08-07T01:38:36;0.77;;;0.73;;
19167;SDS011;9716;53.114;18.040;2023-08-07T01:41:05;0.65;;;0.65;;
19167;SDS011;9716;53.114;18.040;2023-08-07T01:43:34;3.03;;;0.82;;
19167;SDS011;9716;53.114;18.040;2023-08-07T01:46:03;0.70;;;0.70;;
19167;SDS011;9716;53.114;18.040;2023-08-07T01:48:33;1.45;;;0.70;;
19167;SDS011;9716;53.114;18.040;2023-08-07T01:51:01;0.85;;;0.65;;
19167;SDS011;9716;53.114;18.040;2023-08-07T01:53:31;0.50;;;0.50;;
19167;SDS011;9716;53.114;18.040;2023-08-07T01:56:01;0.70;;;0.70;;
19167;SDS011;9716;53.114;18.040;2023-08-07T01:58:30;0.75;;;0.75;;
19167;SDS011;9716;53.114;18.040;2023-08-07T02:00:59;1.30;;;0.80;;
19167;SDS011;9716;53.114;18.040;2023-08-07T02:03:27;2.20;;;0.50;;
19167;SDS011;9716;53.114;18.040;2023-08-07T02:05:56;0.68;;;0.68;;
19167;SDS011;9716;53.114;18.040;2023-08-07T02:08:25;0.60;;;0.60;;
19167;SDS011;9716;53.114;18.040;2023-08-07T02:10:57;0.50;;;0.50;;
19167;SDS011;9716;53.114;18.040;2023-08-07T02:13:30;0.63;;;0.63;;
19167;SDS011;9716;53.114;18.040;2023-08-07T02:15:59;0.50;;;0.50;;
19167;SDS011;9716;53.114;18.040;2023-08-07T02:18:27;0.50;;;0.50;;
19167;SDS011;9716;53.114;18.040;2023-08-07T02:20:56;1.23;;;0.77;;
19167;SDS011;9716;53.114;18.040;2023-08-07T02:23:25;0.70;;;0.70;;
19167;SDS011;9716;53.114;18.040;2023-08-07T02:25:54;0.88;;;0.63;;
19167;SDS011;9716;53.114;18.040;2023-08-07T02:28:23;0.55;;;0.55;;
19167;SDS011;9716;53.114;18.040;2023-08-07T02:30:53;1.00;;;0.50;;
19167;SDS011;9716;53.114;18.040;2023-08-07T02:33:21;0.70;;;0.70;;
19167;SDS011;9716;53.114;18.040;2023-08-07T02:35:50;0.60;;;0.60;;
19167;SDS011;9716;53.114;18.040;2023-08-07T02:38:18;0.65;;;0.65;;
19167;SDS011;9716;53.114;18.040;2023-08-07T02:40:47;0.73;;;0.73;;
19167;SDS011;9716;53.114;18.040;2023-08-07T02:43:15;1.38;;;0.80;;
19167;SDS011;9716;53.114;18.040;2023-08-07T02:45:44;0.52;;;0.52;;
19167;SDS011;9716;53.114;18.040;2023-08-07T02:48:14;0.57;;;0.57;;
19167;SDS011;9716;53.114;18.040;2023-08-07T02:50:44;0.68;;;0.68;;
19167;SDS011;9716;53.114;18.040;2023-08-07T02:53:12;0.60;;;0.60;;
19167;SDS011;9716;53.114;18.040;2023-08-07T02:55:42;0.80;;;0.80;;
19167;SDS011;9716;53.114;18.040;2023-08-07T02:58:11;0.60;;;0.60;;
19167;SDS011;9716;53.114;18.040;2023-08-07T03:00:42;0.60;;;0.60;;
19167;SDS011;9716;53.114;18.040;2023-08-07T03:03:10;1.52;;;0.73;;
19167;SDS011;9716;53.114;18.040;2023-08-07T03:05:48;0.63;;;0.60;;
19167;SDS011;9716;53.114;18.040;2023-08-07T03:08:17;0.55;;;0.55;;
19167;SDS011;9716;53.114;18.040;2023-08-07T03:10:49;15.00;;;0.88;;
19167;SDS011;9716;53.114;18.040;2023-08-07T03:13:19;0.60;;;0.60;;
19167;SDS011;9716;53.114;18.040;2023-08-07T03:15:47;0.52;;;0.52;;
19167;SDS011;9716;53.114;18.040;2023-08-07T03:18:17;1.10;;;0.70;;
19167;SDS011;9716;53.114;18.040;2023-08-07T03:20:50;16.35;;;0.88;;
19167;SDS011;9716;53.114;18.040;2023-08-07T03:23:18;0.47;;;0.47;;
19167;SDS011;9716;53.114;18.040;2023-08-07T03:25:50;0.70;;;0.70;;
19167;SDS011;9716;53.114;18.040;2023-08-07T03:28:30;0.75;;;0.73;;
19167;SDS011;9716;53.114;18.040;2023-08-07T03:31:00;0.63;;;0.63;;
19167;SDS011;9716;53.114;18.040;2023-08-07T03:33:28;0.70;;;0.60;;
19167;SDS011;9716;53.114;18.040;2023-08-07T03:35:59;0.75;;;0.75;;
19167;SDS011;9716;53.114;18.040;2023-08-07T03:38:27;0.50;;;0.50;;
19167;SDS011;9716;53.114;18.040;2023-08-07T03:40:56;0.57;;;0.57;;
19167;SDS011;9716;53.114;18.040;2023-08-07T03:43:25;0.55;;;0.55;;
19167;SDS011;9716;53.114;18.040;2023-08-07T03:45:54;0.75;;;0.60;;
19167;SDS011;9716;53.114;18.040;2023-08-07T03:48:28;0.60;;;0.60;;
19167;SDS011;9716;53.114;18.040;2023-08-07T03:51:03;1.65;;;0.70;;
19167;SDS011;9716;53.114;18.040;2023-08-07T03:53:38;0.63;;;0.63;;
19167;SDS011;9716;53.114;18.040;2023-08-07T03:56:06;0.50;;;0.50;;
19167;SDS011;9716;53.114;18.040;2023-08-07T03:58:35;0.85;;;0.70;;
19167;SDS011;9716;53.114;18.040;2023-08-07T04:01:07;0.80;;;0.52;;
19167;SDS011;9716;53.114;18.040;2023-08-07T04:03:35;0.60;;;0.60;;
19167;SDS011;9716;53.114;18.040;2023-08-07T04:06:06;0.60;;;0.60;;
19167;SDS011;9716;53.114;18.040;2023-08-07T04:08:37;0.82;;;0.68;;
19167;SDS011;9716;53.114;18.040;2023-08-07T04:11:06;0.90;;;0.80;;
19167;SDS011;9716;53.114;18.040;2023-08-07T04:13:37;0.50;;;0.50;;
19167;SDS011;9716;53.114;18.040;2023-08-07T04:16:08;1.67;;;0.75;;
19167;SDS011;9716;53.114;18.040;2023-08-07T04:18:37;0.82;;;0.70;;
19167;SDS011;9716;53.114;18.040;2023-08-07T04:21:09;0.47;;;0.47;;
19167;SDS011;9716;53.114;18.040;2023-08-07T04:23:38;1.27;;;1.00;;
19167;SDS011;9716;53.114;18.040;2023-08-07T04:26:10;0.60;;;0.60;;
19167;SDS011;9716;53.114;18.040;2023-08-07T04:28:40;0.77;;;0.70;;
19167;SDS011;9716;53.114;18.040;2023-08-07T04:31:09;2.70;;;1.55;;
19167;SDS011;9716;53.114;18.040;2023-08-07T04:33:38;3.85;;;2.17;;
19167;SDS011;9716;53.114;18.040;2023-08-07T04:36:15;2.25;;;1.13;;
19167;SDS011;9716;53.114;18.040;2023-08-07T04:38:47;2.50;;;1.15;;
19167;SDS011;9716;53.114;18.040;2023-08-07T04:41:19;1.25;;;1.05;;
19167;SDS011;9716;53.114;18.040;2023-08-07T04:43:47;1.58;;;1.20;;
19167;SDS011;9716;53.114;18.040;2023-08-07T04:46:19;1.25;;;1.00;;
19167;SDS011;9716;53.114;18.040;2023-08-07T04:48:48;2.20;;;1.10;;
19167;SDS011;9716;53.114;18.040;2023-08-07T04:51:23;0.90;;;0.80;;
19167;SDS011;9716;53.114;18.040;2023-08-07T04:53:51;2.28;;;1.10;;
19167;SDS011;9716;53.114;18.040;2023-08-07T04:56:20;1.67;;;1.20;;
19167;SDS011;9716;53.114;18.040;2023-08-07T04:58:52;1.65;;;1.02;;
19167;SDS011;9716;53.114;18.040;2023-08-07T05:01:21;0.70;;;0.70;;
19167;SDS011;9716;53.114;18.040;2023-08-07T05:03:49;1.23;;;1.08;;
19167;SDS011;9716;53.114;18.040;2023-08-07T05:06:20;3.05;;;1.30;;
19167;SDS011;9716;53.114;18.040;2023-08-07T05:08:51;3.08;;;1.23;;
19167;SDS011;9716;53.114;18.040;2023-08-07T05:11:21;1.10;;;1.00;;
19167;SDS011;9716;53.114;18.040;2023-08-07T05:13:50;1.42;;;1.33;;
19167;SDS011;9716;53.114;18.040;2023-08-07T05:16:22;0.90;;;0.90;;
19167;SDS011;9716;53.114;18.040;2023-08-07T05:18:50;1.30;;;1.10;;
19167;SDS011;9716;53.114;18.040;2023-08-07T05:21:24;4.38;;;1.30;;
19167;SDS011;9716;53.114;18.040;2023-08-07T05:23:53;0.90;;;0.90;;
19167;SDS011;9716;53.114;18.040;2023-08-07T05:26:22;1.17;;;1.08;;
19167;SDS011;9716;53.114;18.040;2023-08-07T05:29:00;3.90;;;1.13;;
19167;SDS011;9716;53.114;18.040;2023-08-07T05:31:32;1.45;;;1.08;;
19167;SDS011;9716;53.114;18.040;2023-08-07T05:34:00;2.92;;;1.23;;
19167;SDS011;9716;53.114;18.040;2023-08-07T05:36:31;7.00;;;1.45;;
19167;SDS011;9716;53.114;18.040;2023-08-07T05:39:00;2.15;;;1.08;;
19167;SDS011;9716;53.114;18.040;2023-08-07T05:41:34;2.58;;;1.30;;
19167;SDS011;9716;53.114;18.040;2023-08-07T05:44:05;1.38;;;0.90;;
19167;SDS011;9716;53.114;18.040;2023-08-07T05:46:35;1.20;;;1.10;;
19167;SDS011;9716;53.114;18.040;2023-08-07T05:49:04;1.25;;;0.88;;
19167;SDS011;9716;53.114;18.040;2023-08-07T05:51:34;1.70;;;1.10;;
19167;SDS011;9716;53.114;18.040;2023-08-07T05:54:04;2.85;;;0.95;;
19167;SDS011;9716;53.114;18.040;2023-08-07T05:56:33;1.40;;;1.20;;
19167;SDS011;9716;53.114;18.040;2023-08-07T05:59:05;1.48;;;1.00;;
19167;SDS011;9716;53.114;18.040;2023-08-07T06:01:37;3.83;;;1.17;;
19167;SDS011;9716;53.114;18.040;2023-08-07T06:04:09;1.10;;;0.90;;
19167;SDS011;9716;53.114;18.040;2023-08-07T06:06:42;3.63;;;1.10;;
19167;SDS011;9716;53.114;18.040;2023-08-07T06:09:12;3.45;;;1.25;;
19167;SDS011;9716;53.114;18.040;2023-08-07T06:11:42;1.45;;;0.95;;
19167;SDS011;9716;53.114;18.040;2023-08-07T06:14:11;1.42;;;1.10;;
19167;SDS011;9716;53.114;18.040;2023-08-07T06:16:45;1.08;;;0.98;;
19167;SDS011;9716;53.114;18.040;2023-08-07T06:19:16;3.30;;;1.20;;
19167;SDS011;9716;53.114;18.040;2023-08-07T06:22:08;3.28;;;1.10;;
19167;SDS011;9716;53.114;18.040;2023-08-07T06:24:37;1.55;;;1.05;;
19167;SDS011;9716;53.114;18.040;2023-08-07T06:27:09;1.98;;;1.10;;
19167;SDS011;9716;53.114;18.040;2023-08-07T06:29:39;4.03;;;0.95;;
19167;SDS011;9716;53.114;18.040;2023-08-07T06:32:15;3.97;;;1.40;;
19167;SDS011;9716;53.114;18.040;2023-08-07T06:34:47;1.90;;;1.30;;
19167;SDS011;9716;53.114;18.040;2023-08-07T06:37:25;1.50;;;1.10;;
19167;SDS011;9716;53.114;18.040;2023-08-07T06:39:55;1.60;;;1.02;;
19167;SDS011;9716;53.114;18.040;2023-08-07T06:42:24;0.93;;;0.88;;
19167;SDS011;9716;53.114;18.040;2023-08-07T06:44:57;2.60;;;1.13;;
19167;SDS011;9716;53.114;18.040;2023-08-07T06:47:26;1.00;;;0.93;;
19167;SDS011;9716;53.114;18.040;2023-08-07T06:49:58;5.13;;;1.10;;
19167;SDS011;9716;53.114;18.040;2023-08-07T06:52:29;3.60;;;1.30;;
19167;SDS011;9716;53.114;18.040;2023-08-07T06:55:00;1.75;;;1.33;;
19167;SDS011;9716;53.114;18.040;2023-08-07T06:57:31;0.80;;;0.80;;
19167;SDS011;9716;53.114;18.040;2023-08-07T06:59:59;1.77;;;1.00;;
19167;SDS011;9716;53.114;18.040;2023-08-07T07:02:31;1.40;;;1.20;;
19167;SDS011;9716;53.114;18.040;2023-08-07T07:05:00;1.15;;;1.05;;
19167;SDS011;9716;53.114;18.040;2023-08-07T07:07:31;2.85;;;1.25;;
19167;SDS011;9716;53.114;18.040;2023-08-07T07:10:03;3.92;;;1.00;;
19167;SDS011;9716;53.114;18.040;2023-08-07T07:12:34;1.50;;;1.08;;
19167;SDS011;9716;53.114;18.040;2023-08-07T07:15:03;1.10;;;0.80;;
19167;SDS011;9716;53.114;18.040;2023-08-07T07:17:33;1.30;;;0.90;;
19167;SDS011;9716;53.114;18.040;2023-08-07T07:20:04;3.30;;;1.15;;
19167;SDS011;9716;53.114;18.040;2023-08-07T07:22:39;1.83;;;1.02;;
19167;SDS011;9716;53.114;18.040;2023-08-07T07:25:08;1.38;;;0.85;;
19167;SDS011;9716;53.114;18.040;2023-08-07T07:27:41;1.27;;;0.93;;
19167;SDS011;9716;53.114;18.040;2023-08-07T07:30:10;1.13;;;1.02;;
19167;SDS011;9716;53.114;18.040;2023-08-07T07:32:39;1.55;;;0.95;;
19167;SDS011;9716;53.114;18.040;2023-08-07T07:35:08;1.52;;;1.38;;
19167;SDS011;9716;53.114;18.040;2023-08-07T07:37:37;1.83;;;1.13;;
19167;SDS011;9716;53.114;18.040;2023-08-07T07:40:10;2.85;;;1.17;;
19167;SDS011;9716;53.114;18.040;2023-08-07T07:42:40;1.23;;;1.00;;
19167;SDS011;9716;53.114;18.040;2023-08-07T07:45:11;1.67;;;1.25;;
19167;SDS011;9716;53.114;18.040;2023-08-07T07:47:43;1.27;;;0.90;;
19167;SDS011;9716;53.114;18.040;2023-08-07T07:50:13;1.30;;;0.90;;
19167;SDS011;9716;53.114;18.040;2023-08-07T07:52:50;3.78;;;1.10;;
19167;SDS011;9716;53.114;18.040;2023-08-07T07:55:19;1.25;;;1.00;;
19167;SDS011;9716;53.114;18.040;2023-08-07T07:57:54;1.67;;;0.98;;
19167;SDS011;9716;53.114;18.040;2023-08-07T08:00:25;3.05;;;1.25;;
19167;SDS011;9716;53.114;18.040;2023-08-07T08:02:54;0.98;;;0.88;;
19167;SDS011;9716;53.114;18.040;2023-08-07T08:05:24;1.52;;;1.10;;
19167;SDS011;9716;53.114;18.040;2023-08-07T08:07:57;1.02;;;0.93;;
19167;SDS011;9716;53.114;18.040;2023-08-07T08:10:31;0.85;;;0.80;;
19167;SDS011;9716;53.114;18.040;2023-08-07T08:13:04;1.98;;;1.17;;
19167;SDS011;9716;53.114;18.040;2023-08-07T08:15:36;0.75;;;0.75;;
19167;SDS011;9716;53.114;18.040;2023-08-07T08:18:05;4.43;;;1.20;;
19167;SDS011;9716;53.114;18.040;2023-08-07T08:20:34;1.88;;;1.30;;
19167;SDS011;9716;53.114;18.040;2023-08-07T08:23:17;1.45;;;1.10;;
19167;SDS011;9716;53.114;18.040;2023-08-07T08:25:45;2.15;;;1.33;;
19167;SDS011;9716;53.114;18.040;2023-08-07T08:28:15;2.17;;;1.33;;
19167;SDS011;9716;53.114;18.040;2023-08-07T08:30:49;1.80;;;1.05;;
19167;SDS011;9716;53.114;18.040;2023-08-07T08:33:18;1.23;;;1.10;;
19167;SDS011;9716;53.114;18.040;2023-08-07T08:35:47;2.63;;;1.00;;
19167;SDS011;9716;53.114;18.040;2023-08-07T08:38:18;1.67;;;0.88;;
19167;SDS011;9716;53.114;18.040;2023-08-07T08:40:48;2.95;;;1.17;;
19167;SDS011;9716;53.114;18.040;2023-08-07T08:43:20;3.50;;;0.90;;
19167;SDS011;9716;53.114;18.040;2023-08-07T08:45:50;1.10;;;1.00;;
19167;SDS011;9716;53.114;18.040;2023-08-07T08:48:24;0.70;;;0.70;;
19167;SDS011;9716;53.114;18.040;2023-08-07T08:50:53;1.88;;;1.00;;
19167;SDS011;9716;53.114;18.040;2023-08-07T08:53:25;1.05;;;0.80;;
19167;SDS011;9716;53.114;18.040;2023-08-07T08:56:02;0.85;;;0.82;;
19167;SDS011;9716;53.114;18.040;2023-08-07T08:58:37;1.35;;;0.80;;
19167;SDS011;9716;53.114;18.040;2023-08-07T09:01:07;0.90;;;0.90;;
19167;SDS011;9716;53.114;18.040;2023-08-07T09:03:46;0.88;;;0.82;;
19167;SDS011;9716;53.114;18.040;2023-08-07T09:06:28;1.23;;;0.77;;
19167;SDS011;9716;53.114;18.040;2023-08-07T09:09:06;5.93;;;1.10;;
19167;SDS011;9716;53.114;18.040;2023-08-07T09:11:39;0.70;;;0.70;;
19167;SDS011;9716;53.114;18.040;2023-08-07T09:14:17;1.05;;;0.88;;
19167;SDS011;9716;53.114;18.040;2023-08-07T09:16:51;5.95;;;1.10;;
19167;SDS011;9716;53.114;18.040;2023-08-07T09:19:40;0.95;;;0.77;;
19167;SDS011;9716;53.114;18.040;2023-08-07T09:22:15;0.80;;;0.80;;
19167;SDS011;9716;53.114;18.040;2023-08-07T09:24:49;6.90;;;0.80;;
19167;SDS011;9716;53.114;18.040;2023-08-07T09:27:26;0.82;;;0.82;;
19167;SDS011;9716;53.114;18.040;2023-08-07T09:29:56;1.73;;;0.75;;
19167;SDS011;9716;53.114;18.040;2023-08-07T09:32:34;0.60;;;0.60;;
19167;SDS011;9716;53.114;18.040;2023-08-07T09:35:06;2.63;;;1.10;;
19167;SDS011;9716;53.114;18.040;2023-08-07T09:37:41;2.35;;;1.10;;
19167;SDS011;9716;53.114;18.040;2023-08-07T09:40:22;1.80;;;0.88;;
19167;SDS011;9716;53.114;18.040;2023-08-07T09:42:55;1.98;;;0.80;;
19167;SDS011;9716;53.114;18.040;2023-08-07T09:45:27;2.22;;;0.73;;
19167;SDS011;9716;53.114;18.040;2023-08-07T09:48:03;1.90;;;0.88;;
19167;SDS011;9716;53.114;18.040;2023-08-07T09:50:54;0.80;;;0.73;;
19167;SDS011;9716;53.114;18.040;2023-08-07T09:53:29;1.75;;;1.00;;
19167;SDS011;9716;53.114;18.040;2023-08-07T09:56:04;1.15;;;1.02;;
19167;SDS011;9716;53.114;18.040;2023-08-07T09:58:37;0.70;;;0.70;;
19167;SDS011;9716;53.114;18.040;2023-08-07T10:01:08;5.18;;;1.20;;
19167;SDS011;9716;53.114;18.040;2023-08-07T10:03:41;1.42;;;0.70;;
19167;SDS011;9716;53.114;18.040;2023-08-07T10:06:16;1.23;;;0.82;;
19167;SDS011;9716;53.114;18.040;2023-08-07T10:08:55;1.35;;;0.95;;
19167;SDS011;9716;53.114;18.040;2023-08-07T10:11:37;0.80;;;0.80;;
19167;SDS011;9716;53.114;18.040;2023-08-07T10:14:08;1.92;;;1.00;;
19167;SDS011;9716;53.114;18.040;2023-08-07T10:16:43;1.73;;;1.00;;
19167;SDS011;9716;53.114;18.040;2023-08-07T10:19:16;1.55;;;1.23;;
19167;SDS011;9716;53.114;18.040;2023-08-07T10:21:54;0.98;;;0.90;;
19167;SDS011;9716;53.114;18.040;2023-08-07T10:24:24;1.30;;;0.70;;
19167;SDS011;9716;53.114;18.040;2023-08-07T10:26:58;3.05;;;1.08;;
19167;SDS011;9716;53.114;18.040;2023-08-07T10:29:32;1.48;;;0.82;;
19167;SDS011;9716;53.114;18.040;2023-08-07T10:32:09;2.22;;;1.08;;
19167;SDS011;9716;53.114;18.040;2023-08-07T10:34:46;1.30;;;0.93;;
19167;SDS011;9716;53.114;18.040;2023-08-07T10:37:31;1.08;;;0.95;;
19167;SDS011;9716;53.114;18.040;2023-08-07T10:40:09;6.80;;;1.35;;
19167;SDS011;9716;53.114;18.040;2023-08-07T10:42:59;1.35;;;1.20;;
19167;SDS011;9716;53.114;18.040;2023-08-07T10:45:41;9.05;;;1.27;;
19167;SDS011;9716;53.114;18.040;2023-08-07T10:48:17;1.20;;;1.00;;
19167;SDS011;9716;53.114;18.040;2023-08-07T10:50:51;1.35;;;0.98;;
19167;SDS011;9716;53.114;18.040;2023-08-07T10:53:28;2.65;;;1.10;;
19167;SDS011;9716;53.114;18.040;2023-08-07T10:56:01;11.88;;;1.48;;
19167;SDS011;9716;53.114;18.040;2023-08-07T10:58:34;2.75;;;1.33;;
19167;SDS011;9716;53.114;18.040;2023-08-07T11:01:18;2.75;;;1.17;;
19167;SDS011;9716;53.114;18.040;2023-08-07T11:03:50;2.08;;;1.10;;
19167;SDS011;9716;53.114;18.040;2023-08-07T11:06:23;2.63;;;1.10;;
19167;SDS011;9716;53.114;18.040;2023-08-07T11:09:00;4.45;;;1.27;;
19167;SDS011;9716;53.114;18.040;2023-08-07T11:11:34;2.45;;;1.25;;
19167;SDS011;9716;53.114;18.040;2023-08-07T11:14:13;4.10;;;1.13;;
19167;SDS011;9716;53.114;18.040;2023-08-07T11:16:47;1.20;;;1.10;;
19167;SDS011;9716;53.114;18.040;2023-08-07T11:19:22;3.47;;;1.98;;
19167;SDS011;9716;53.114;18.040;2023-08-07T11:21:53;2.28;;;1.30;;
19167;SDS011;9716;53.114;18.040;2023-08-07T11:24:26;2.05;;;1.40;;
19167;SDS011;9716;53.114;18.040;2023-08-07T11:26:56;1.40;;;1.30;;
19167;SDS011;9716;53.114;18.040;2023-08-07T11:29:34;2.40;;;1.30;;
19167;SDS011;9716;53.114;18.040;2023-08-07T11:32:08;2.05;;;1.27;;
19167;SDS011;9716;53.114;18.040;2023-08-07T11:34:40;3.35;;;1.05;;
19167;SDS011;9716;53.114;18.040;2023-08-07T11:37:16;1.45;;;1.10;;
19167;SDS011;9716;53.114;18.040;2023-08-07T11:39:48;1.40;;;1.23;;
19167;SDS011;9716;53.114;18.040;2023-08-07T11:42:17;2.90;;;1.30;;
19167;SDS011;9716;53.114;18.040;2023-08-07T11:44:50;1.63;;;1.20;;
19167;SDS011;9716;53.114;18.040;2023-08-07T11:47:19;2.28;;;1.20;;
19167;SDS011;9716;53.114;18.040;2023-08-07T11:49:51;4.15;;;1.30;;
19167;SDS011;9716;53.114;18.040;2023-08-07T11:52:29;2.40;;;1.52;;
19167;SDS011;9716;53.114;18.040;2023-08-07T11:55:01;2.30;;;1.50;;
19167;SDS011;9716;53.114;18.040;2023-08-07T11:57:38;5.00;;;1.27;;
19167;SDS011;9716;53.114;18.040;2023-08-07T12:00:17;1.58;;;1.23;;
19167;SDS011;9716;53.114;18.040;2023-08-07T12:02:47;1.20;;;1.10;;
19167;SDS011;9716;53.114;18.040;2023-08-07T12:05:19;1.63;;;1.20;;
19167;SDS011;9716;53.114;18.040;2023-08-07T12:07:50;2.08;;;1.40;;
19167;SDS011;9716;53.114;18.040;2023-08-07T12:10:19;4.82;;;1.73;;
19167;SDS011;9716;53.114;18.040;2023-08-07T12:12:51;1.75;;;1.23;;
19167;SDS011;9716;53.114;18.040;2023-08-07T12:15:30;1.50;;;1.02;;
19167;SDS011;9716;53.114;18.040;2023-08-07T12:18:00;1.92;;;1.33;;
19167;SDS011;9716;53.114;18.040;2023-08-07T12:20:29;5.32;;;1.08;;
19167;SDS011;9716;53.114;18.040;2023-08-07T12:22:58;1.17;;;1.08;;
19167;SDS011;9716;53.114;18.040;2023-08-07T12:25:27;2.60;;;0.90;;
19167;SDS011;9716;53.114;18.040;2023-08-07T12:27:58;4.60;;;1.25;;
19167;SDS011;9716;53.114;18.040;2023-08-07T12:30:29;1.00;;;0.90;;
19167;SDS011;9716;53.114;18.040;2023-08-07T12:33:04;1.65;;;1.27;;
19167;SDS011;9716;53.114;18.040;2023-08-07T12:35:34;2.78;;;1.08;;
19167;SDS011;9716;53.114;18.040;2023-08-07T12:38:04;1.17;;;1.02;;
19167;SDS011;9716;53.114;18.040;2023-08-07T12:40:36;1.77;;;1.08;;
19167;SDS011;9716;53.114;18.040;2023-08-07T12:43:10;1.83;;;0.95;;
19167;SDS011;9716;53.114;18.040;2023-08-07T12:45:41;1.20;;;1.08;;
19167;SDS011;9716;53.114;18.040;2023-08-07T12:48:13;2.10;;;1.42;;
19167;SDS011;9716;53.114;18.040;2023-08-07T12:50:43;1.55;;;0.90;;
19167;SDS011;9716;53.114;18.040;2023-08-07T12:53:12;2.28;;;1.30;;
19167;SDS011;9716;53.114;18.040;2023-08-07T12:55:41;1.67;;;1.27;;
19167;SDS011;9716;53.114;18.040;2023-08-07T12:58:11;1.10;;;1.00;;
19167;SDS011;9716;53.114;18.040;2023-08-07T13:00:44;3.08;;;1.50;;
19167;SDS011;9716;53.114;18.040;2023-08-07T13:03:13;1.40;;;1.08;;
19167;SDS011;9716;53.114;18.040;2023-08-07T13:05:44;2.55;;;1.05;;
19167;SDS011;9716;53.114;18.040;2023-08-07T13:08:13;0.98;;;0.95;;
19167;SDS011;9716;53.114;18.040;2023-08-07T13:10:43;1.20;;;1.00;;
19167;SDS011;9716;53.114;18.040;2023-08-07T13:13:16;2.60;;;1.30;;
19167;SDS011;9716;53.114;18.040;2023-08-07T13:15:48;2.00;;;1.52;;
19167;SDS011;9716;53.114;18.040;2023-08-07T13:18:21;0.88;;;0.85;;
19167;SDS011;9716;53.114;18.040;2023-08-07T13:20:51;2.20;;;1.23;;
19167;SDS011;9716;53.114;18.040;2023-08-07T13:23:26;5.07;;;1.58;;
19167;SDS011;9716;53.114;18.040;2023-08-07T13:25:57;2.25;;;1.13;;
19167;SDS011;9716;53.114;18.040;2023-08-07T13:28:28;3.80;;;1.15;;
19167;SDS011;9716;53.114;18.040;2023-08-07T13:31:00;2.85;;;1.38;;
19167;SDS011;9716;53.114;18.040;2023-08-07T13:33:31;1.30;;;1.10;;
19167;SDS011;9716;53.114;18.040;2023-08-07T13:36:01;2.65;;;1.30;;
19167;SDS011;9716;53.114;18.040;2023-08-07T13:38:36;2.40;;;1.52;;
19167;SDS011;9716;53.114;18.040;2023-08-07T13:41:06;2.65;;;1.17;;
19167;SDS011;9716;53.114;18.040;2023-08-07T13:43:36;1.40;;;1.30;;
19167;SDS011;9716;53.114;18.040;2023-08-07T13:46:09;7.53;;;1.17;;
19167;SDS011;9716;53.114;18.040;2023-08-07T13:48:39;2.05;;;1.23;;
19167;SDS011;9716;53.114;18.040;2023-08-07T13:51:09;2.17;;;1.15;;
19167;SDS011;9716;53.114;18.040;2023-08-07T13:53:38;1.95;;;1.13;;
19167;SDS011;9716;53.114;18.040;2023-08-07T13:56:13;6.28;;;1.10;;
19167;SDS011;9716;53.114;18.040;2023-08-07T13:59:06;2.47;;;1.38;;
19167;SDS011;9716;53.114;18.040;2023-08-07T14:01:43;5.45;;;1.33;;
19167;SDS011;9716;53.114;18.040;2023-08-07T14:04:16;1.52;;;1.23;;
19167;SDS011;9716;53.114;18.040;2023-08-07T14:08:13;1.50;;;1.23;;
19167;SDS011;9716;53.114;18.040;2023-08-07T14:10:50;1.20;;;1.00;;
19167;SDS011;9716;53.114;18.040;2023-08-07T14:13:35;1.25;;;1.08;;
19167;SDS011;9716;53.114;18.040;2023-08-07T14:16:09;1.75;;;1.10;;
19167;SDS011;9716;53.114;18.040;2023-08-07T14:18:46;1.95;;;1.17;;
19167;SDS011;9716;53.114;18.040;2023-08-07T14:21:17;2.60;;;1.20;;
19167;SDS011;9716;53.114;18.040;2023-08-07T14:23:47;2.25;;;1.20;;
19167;SDS011;9716;53.114;18.040;2023-08-07T14:26:23;3.78;;;0.93;;
19167;SDS011;9716;53.114;18.040;2023-08-07T14:28:56;2.55;;;1.00;;
19167;SDS011;9716;53.114;18.040;2023-08-07T14:31:27;2.13;;;1.25;;
19167;SDS011;9716;53.114;18.040;2023-08-07T14:34:00;3.60;;;1.27;;
19167;SDS011;9716;53.114;18.040;2023-08-07T14:36:33;1.33;;;1.00;;
19167;SDS011;9716;53.114;18.040;2023-08-07T14:39:04;2.88;;;1.20;;
19167;SDS011;9716;53.114;18.040;2023-08-07T14:41:40;1.98;;;0.98;;
19167;SDS011;9716;53.114;18.040;2023-08-07T14:44:20;1.67;;;1.00;;
19167;SDS011;9716;53.114;18.040;2023-08-07T14:46:52;1.35;;;1.20;;
19167;SDS011;9716;53.114;18.040;2023-08-07T14:49:32;1.10;;;0.93;;
19167;SDS011;9716;53.114;18.040;2023-08-07T14:52:05;2.08;;;1.33;;
19167;SDS011;9716;53.114;18.040;2023-08-07T14:54:39;2.80;;;0.90;;
19167;SDS011;9716;53.114;18.040;2023-08-07T14:57:16;4.78;;;0.90;;
19167;SDS011;9716;53.114;18.040;2023-08-07T14:59:50;1.60;;;1.13;;
19167;SDS011;9716;53.114;18.040;2023-08-07T15:02:20;1.17;;;1.05;;
19167;SDS011;9716;53.114;18.040;2023-08-07T15:05:03;2.33;;;0.98;;
19167;SDS011;9716;53.114;18.040;2023-08-07T15:07:39;1.13;;;1.02;;
19167;SDS011;9716;53.114;18.040;2023-08-07T15:10:12;1.08;;;0.88;;
19167;SDS011;9716;53.114;18.040;2023-08-07T15:12:43;2.78;;;1.00;;
19167;SDS011;9716;53.114;18.040;2023-08-07T15:15:16;2.00;;;0.98;;
19167;SDS011;9716;53.114;18.040;2023-08-07T15:17:49;2.28;;;0.93;;